Time;durP1;ratioP1;P1;durP2;ratioP2;P2;SDS_P1;SDS_P2;PMS_P1;PMS_P2;Temp;Humidity;BMP_temperature;BMP_pressure;BME280_temperature;BME280_humidity;BME280_pressure;Samples;Min_cycle;Max_cycle;Signal;HPM_P1;HPM_P2
2023/11/29 00:01:33;;;;;;;30.17;19.13;;;205.00;2252.80;;;;;;5065132;28;20032;-59
2023/11/29 00:03:59;;;;;;;24.85;17.88;;;205.00;2252.80;;;;;;5070143;28;20052;-58
2023/11/29 00:06:25;;;;;;;18.92;11.95;;;204.90;2252.80;;;;;;5070290;28;20052;-59
2023/11/29 00:08:54;;;;;;;30.77;18.33;;;205.00;2252.80;;;;;;5069569;28;20050;-59
2023/11/29 00:11:20;;;;;;;39.13;24.60;;;205.00;2252.80;;;;;;5069257;28;20054;-59
2023/11/29 00:13:46;;;;;;;48.80;29.80;;;204.80;2252.80;;;;;;5069132;28;20107;-59
2023/11/29 00:16:12;;;;;;;47.65;31.13;;;204.80;2252.80;;;;;;5069266;28;20024;-58
2023/11/29 00:18:37;;;;;;;27.25;16.73;;;180.00;2252.80;;;;;;5069182;28;20032;-59
2023/11/29 00:21:03;;;;;;;19.88;15.18;;;179.90;2252.80;;;;;;5069543;28;20554;-58
2023/11/29 00:23:31;;;;;;;22.15;16.15;;;179.70;2252.80;;;;;;5068994;28;20023;-59
2023/11/29 00:25:57;;;;;;;23.90;16.30;;;179.50;2252.80;;;;;;5069635;28;20032;-58
2023/11/29 00:28:22;;;;;;;40.47;28.42;;;179.40;2252.80;;;;;;5069228;28;20541;-59
2023/11/29 00:30:48;;;;;;;22.70;16.75;;;179.20;2252.80;;;;;;5068554;28;20024;-59
2023/11/29 00:33:14;;;;;;;28.70;17.80;;;179.40;2252.80;;;;;;5063908;28;20103;-59
2023/11/29 00:35:40;;;;;;;29.73;17.73;;;179.40;2252.80;;;;;;5068700;28;20027;-59
2023/11/29 00:38:05;;;;;;;107.38;69.68;;;179.50;2252.80;;;;;;5068815;28;20040;-58
2023/11/29 00:40:32;;;;;;;161.50;100.70;;;179.30;2252.80;;;;;;5068993;28;20536;-60
2023/11/29 00:42:57;;;;;;;160.48;97.32;;;179.20;2252.80;;;;;;5069018;28;20085;-59
2023/11/29 00:45:23;;;;;;;107.00;69.40;;;179.20;2252.80;;;;;;5069253;28;20099;-59
2023/11/29 00:47:49;;;;;;;82.10;58.50;;;179.20;2252.80;;;;;;5068747;28;20027;-58
2023/11/29 00:50:15;;;;;;;33.17;24.05;;;154.50;2252.80;;;;;;5068958;28;20017;-58
2023/11/29 00:52:41;;;;;;;21.92;16.05;;;154.50;2252.80;;;;;;5068979;28;20040;-60
2023/11/29 00:55:07;;;;;;;28.38;18.17;;;154.40;2252.80;;;;;;5068663;28;20109;-59
2023/11/29 00:57:32;;;;;;;28.02;18.13;;;154.30;2252.80;;;;;;5069128;28;20089;-58
2023/11/29 00:59:58;;;;;;;18.95;13.68;;;154.30;2252.80;;;;;;5067679;28;20029;-59
2023/11/29 01:02:24;;;;;;;15.63;11.02;;;154.20;2252.80;;;;;;5068165;28;20082;-58
2023/11/29 01:04:50;;;;;;;15.85;11.57;;;154.10;2252.80;;;;;;5068717;28;20429;-59
2023/11/29 01:07:16;;;;;;;21.27;18.25;;;154.10;2252.80;;;;;;5068684;28;20039;-60
2023/11/29 01:09:42;;;;;;;36.90;26.85;;;154.00;2252.80;;;;;;5063541;28;20036;-58
2023/11/29 01:12:08;;;;;;;50.10;33.72;;;154.00;2252.80;;;;;;5060905;28;20052;-59
2023/11/29 01:14:35;;;;;;;39.20;28.88;;;154.10;2252.80;;;;;;5068567;28;20467;-59
2023/11/29 01:17:01;;;;;;;27.13;19.05;;;154.00;2252.80;;;;;;5068739;28;20090;-58
2023/11/29 01:19:26;;;;;;;17.30;12.27;;;154.00;2252.80;;;;;;5068558;28;20029;-59
2023/11/29 01:21:52;;;;;;;14.70;9.82;;;153.80;2252.80;;;;;;5068846;28;20066;-58
2023/11/29 01:24:18;;;;;;;22.13;12.48;;;153.80;2252.80;;;;;;5068271;28;20033;-59
2023/11/29 01:26:44;;;;;;;19.48;12.90;;;153.70;2252.80;;;;;;5069021;28;20036;-58
2023/11/29 01:29:10;;;;;;;21.20;15.55;;;153.80;2252.80;;;;;;5068306;28;20028;-59
2023/11/29 01:31:35;;;;;;;18.20;10.40;;;153.70;2252.80;;;;;;5068472;28;20052;-59
2023/11/29 01:34:02;;;;;;;16.50;10.77;;;153.70;2252.80;;;;;;5068713;28;20044;-58
2023/11/29 01:36:28;;;;;;;18.00;14.13;;;153.80;2252.80;;;;;;5068953;28;20037;-59
2023/11/29 01:38:53;;;;;;;12.05;8.18;;;153.90;2252.80;;;;;;5068687;28;20395;-58
2023/11/29 01:41:19;;;;;;;10.65;6.55;;;154.00;2252.80;;;;;;5068482;28;20025;-59
2023/11/29 01:43:45;;;;;;;10.23;7.22;;;154.00;2252.80;;;;;;5043667;28;20051;-59
2023/11/29 01:46:12;;;;;;;12.27;8.10;;;154.00;2252.80;;;;;;5068523;28;20021;-59
2023/11/29 01:48:38;;;;;;;18.88;9.75;;;154.00;2252.80;;;;;;5056687;28;20445;-58
2023/11/29 01:51:04;;;;;;;12.52;8.63;;;154.00;2252.80;;;;;;5072160;28;20031;-59
2023/11/29 01:53:31;;;;;;;10.07;6.65;;;154.00;2252.80;;;;;;5072372;28;20395;-58
2023/11/29 01:55:57;;;;;;;11.70;7.25;;;153.70;2252.80;;;;;;5071958;28;20024;-59
2023/11/29 01:58:25;;;;;;;8.18;6.03;;;153.80;2252.80;;;;;;5072400;28;20072;-59
2023/11/29 02:00:52;;;;;;;14.25;10.00;;;154.00;2252.80;;;;;;5071988;28;20032;-58
2023/11/29 02:03:19;;;;;;;8.68;5.07;;;154.10;2252.80;;;;;;5071887;28;20588;-59
2023/11/29 02:05:45;;;;;;;7.97;5.65;;;154.20;2252.80;;;;;;5072153;28;20036;-58
2023/11/29 02:08:12;;;;;;;9.38;7.07;;;154.20;2252.80;;;;;;5072323;28;20394;-58
2023/11/29 02:10:39;;;;;;;6.88;5.03;;;154.10;2252.80;;;;;;5071469;28;20016;-58
2023/11/29 02:13:05;;;;;;;17.55;10.85;;;154.30;2252.80;;;;;;5072416;28;20032;-59
2023/11/29 02:15:31;;;;;;;22.33;14.38;;;154.20;2252.80;;;;;;5066358;28;20016;-60
2023/11/29 02:17:57;;;;;;;113.55;97.88;;;154.20;2252.80;;;;;;5071672;28;20548;-59
2023/11/29 02:20:25;;;;;;;37.78;25.17;;;154.20;2252.80;;;;;;5072155;28;20020;-59
2023/11/29 02:23:45;;;;;;;25.25;16.13;;;154.40;2252.80;;;;;;5071789;28;20036;-58
2023/11/29 02:26:11;;;;;;;19.65;14.60;;;154.40;2252.80;;;;;;5009993;28;20040;-59
2023/11/29 02:28:37;;;;;;;24.00;15.35;;;154.50;2252.80;;;;;;5058370;28;20033;-59
2023/11/29 02:31:02;;;;;;;12.95;8.43;;;154.50;2252.80;;;;;;5071566;28;20116;-59
2023/11/29 02:33:28;;;;;;;11.18;6.53;;;154.20;2252.80;;;;;;5071415;28;20036;-59
2023/11/29 02:35:54;;;;;;;9.50;4.93;;;153.90;2252.80;;;;;;5071905;28;20028;-59
2023/11/29 02:38:21;;;;;;;13.20;7.32;;;153.90;2252.80;;;;;;5071016;28;20039;-59
2023/11/29 02:40:47;;;;;;;7.57;4.95;;;153.80;2252.80;;;;;;5071189;28;20033;-58
2023/11/29 02:43:12;;;;;;;9.85;6.38;;;153.70;2252.80;;;;;;5071197;28;20036;-59
2023/11/29 02:45:38;;;;;;;12.35;6.53;;;153.60;2252.80;;;;;;5071271;28;20067;-59
2023/11/29 02:48:05;;;;;;;8.57;6.75;;;153.70;2252.80;;;;;;5045371;28;20360;-58
2023/11/29 02:50:31;;;;;;;9.93;5.35;;;153.80;2252.80;;;;;;5060679;28;20033;-59
2023/11/29 02:52:57;;;;;;;7.38;3.88;;;153.70;2252.80;;;;;;5071095;28;20020;-58
2023/11/29 02:55:23;;;;;;;5.28;3.78;;;153.60;2252.80;;;;;;5071660;28;20027;-58
2023/11/29 02:57:49;;;;;;;6.25;4.15;;;153.70;2252.80;;;;;;5070921;28;20461;-59
2023/11/29 03:00:15;;;;;;;4.32;2.80;;;153.70;2252.80;;;;;;5070721;28;20023;-58
2023/11/29 03:02:41;;;;;;;5.13;2.90;;;128.90;2252.80;;;;;;5071221;28;20021;-59
2023/11/29 03:05:07;;;;;;;5.43;2.70;;;128.90;2252.80;;;;;;5070798;28;20032;-59
2023/11/29 03:07:33;;;;;;;57.38;41.90;;;153.70;2252.80;;;;;;5070744;28;20017;-58
2023/11/29 03:09:59;;;;;;;6.20;4.40;;;153.70;2252.80;;;;;;5070731;28;20036;-59
2023/11/29 03:12:24;;;;;;;6.22;5.30;;;128.80;2252.80;;;;;;5070685;28;20044;-59
2023/11/29 03:14:50;;;;;;;10.00;8.85;;;128.50;2252.80;;;;;;5053027;28;20032;-59
2023/11/29 03:17:16;;;;;;;2.85;1.80;;;128.50;2252.80;;;;;;5070420;28;20029;-60
2023/11/29 03:19:42;;;;;;;3.20;1.90;;;128.50;2252.80;;;;;;5066013;28;20056;-58
2023/11/29 03:22:07;;;;;;;3.83;2.10;;;128.40;2252.80;;;;;;5069364;28;20439;-59
2023/11/29 03:24:33;;;;;;;4.18;2.67;;;128.40;2252.80;;;;;;5052303;28;20398;-58
2023/11/29 03:26:59;;;;;;;3.63;2.10;;;128.40;2252.80;;;;;;5070258;28;20025;-59
2023/11/29 03:29:24;;;;;;;3.95;2.28;;;128.30;2252.80;;;;;;5070643;28;20032;-58
2023/11/29 03:31:50;;;;;;;58.10;48.92;;;128.50;2252.80;;;;;;5069936;28;20032;-58
2023/11/29 03:34:16;;;;;;;5.75;3.88;;;128.40;2252.80;;;;;;5070251;28;20554;-59
2023/11/29 03:36:43;;;;;;;4.00;2.97;;;128.40;2252.80;;;;;;5070192;28;20032;-58
2023/11/29 03:39:09;;;;;;;6.95;4.18;;;128.50;2252.80;;;;;;5070227;28;20056;-59
2023/11/29 03:41:35;;;;;;;4.15;2.40;;;128.40;2252.80;;;;;;5070025;28;20035;-59
2023/11/29 03:44:01;;;;;;;3.88;2.08;;;128.40;2252.80;;;;;;5070158;28;20021;-59
2023/11/29 03:46:26;;;;;;;3.75;2.03;;;128.40;2252.80;;;;;;5069656;28;20463;-59
2023/11/29 03:48:52;;;;;;;3.80;2.03;;;128.30;2252.80;;;;;;5070148;28;20048;-58
2023/11/29 03:51:18;;;;;;;6.13;2.40;;;128.30;2252.80;;;;;;5066056;28;20036;-58
2023/11/29 03:53:43;;;;;;;2.97;1.70;;;128.20;2252.80;;;;;;5069894;28;20455;-59
2023/11/29 03:56:09;;;;;;;5.20;3.40;;;128.30;2252.80;;;;;;5069755;28;20108;-58
2023/11/29 03:58:36;;;;;;;4.15;2.75;;;128.10;2252.80;;;;;;5069824;28;20130;-58
2023/11/29 04:01:03;;;;;;;13.40;12.20;;;128.20;2252.80;;;;;;5069624;28;20048;-59
2023/11/29 04:03:28;;;;;;;4.28;2.58;;;128.30;2252.80;;;;;;5069612;28;20108;-59
2023/11/29 04:05:54;;;;;;;6.32;2.70;;;128.20;2252.80;;;;;;5069814;28;20109;-59
2023/11/29 04:08:20;;;;;;;5.18;2.92;;;128.00;2252.80;;;;;;5069620;28;20394;-60
2023/11/29 04:10:45;;;;;;;5.97;3.05;;;128.00;2252.80;;;;;;5068596;28;20505;-58
2023/11/29 04:13:11;;;;;;;7.13;3.85;;;128.10;2252.80;;;;;;5069551;28;20028;-58
2023/11/29 04:15:37;;;;;;;4.70;2.65;;;128.10;2252.80;;;;;;5069338;28;20029;-57
2023/11/29 04:18:03;;;;;;;6.35;3.85;;;128.10;2252.80;;;;;;5069742;28;20040;-58
2023/11/29 04:20:28;;;;;;;20.10;12.13;;;128.00;2252.80;;;;;;5069362;28;20035;-59
2023/11/29 04:22:55;;;;;;;5.72;3.30;;;128.10;2252.80;;;;;;5061662;28;20585;-59
2023/11/29 04:25:23;;;;;;;13.60;9.50;;;128.10;2252.80;;;;;;5068435;28;20112;-59
2023/11/29 04:27:48;;;;;;;6.28;4.70;;;128.10;2252.80;;;;;;5069201;28;20036;-59
2023/11/29 04:30:14;;;;;;;3.63;2.30;;;128.00;2252.80;;;;;;5069413;28;20029;-59
2023/11/29 04:32:40;;;;;;;5.03;3.17;;;103.30;2227.20;;;;;;5069358;28;20169;-58
2023/11/29 04:35:06;;;;;;;6.03;3.60;;;128.00;2252.80;;;;;;5068591;28;20025;-59
2023/11/29 04:37:32;;;;;;;5.55;3.75;;;103.30;2227.20;;;;;;5069217;28;20038;-59
2023/11/29 04:39:58;;;;;;;5.53;3.17;;;103.30;2227.20;;;;;;5069174;28;20025;-60
2023/11/29 04:42:24;;;;;;;5.40;2.88;;;128.00;2252.80;;;;;;5069478;28;20024;-60
2023/11/29 04:44:50;;;;;;;4.18;2.88;;;128.10;2252.80;;;;;;5069093;28;20024;-58
2023/11/29 04:47:15;;;;;;;6.93;4.15;;;128.00;2252.80;;;;;;5069232;28;20028;-59
2023/11/29 04:49:41;;;;;;;6.40;4.40;;;128.20;2252.80;;;;;;5069370;28;20052;-58
2023/11/29 04:52:07;;;;;;;5.90;4.32;;;128.10;2252.80;;;;;;5068161;28;20530;-60
2023/11/29 04:54:33;;;;;;;5.18;4.13;;;128.20;2252.80;;;;;;5060741;28;20021;-59
2023/11/29 04:56:59;;;;;;;4.00;2.63;;;128.00;2252.80;;;;;;5068017;28;20024;-59
2023/11/29 04:59:25;;;;;;;6.57;3.55;;;128.10;2252.80;;;;;;5069438;28;20029;-58
2023/11/29 05:01:51;;;;;;;3.88;2.42;;;128.10;2252.80;;;;;;5068892;28;20032;-59
2023/11/29 05:04:17;;;;;;;4.35;2.42;;;128.00;2252.80;;;;;;5069031;28;20052;-59
2023/11/29 05:06:43;;;;;;;6.13;2.85;;;128.20;2252.80;;;;;;5069011;28;20086;-58
2023/11/29 05:09:14;;;;;;;7.78;6.20;;;128.10;2252.80;;;;;;5068856;28;20538;-59
2023/11/29 05:11:40;;;;;;;4.25;2.83;;;128.00;2252.80;;;;;;5068803;28;20136;-59
2023/11/29 05:14:06;;;;;;;3.63;2.42;;;103.30;2227.20;;;;;;5068852;28;20111;-60
2023/11/29 05:16:33;;;;;;;9.45;8.43;;;103.20;2227.20;;;;;;5068960;28;20111;-59
2023/11/29 05:18:59;;;;;;;4.82;2.72;;;103.30;2227.20;;;;;;5068735;28;20111;-59
2023/11/29 05:21:26;;;;;;;5.47;3.47;;;103.30;2227.20;;;;;;5069480;28;20052;-58
2023/11/29 05:23:52;;;;;;;3.60;2.53;;;103.30;2227.20;;;;;;5071241;28;20040;-58
2023/11/29 05:26:18;;;;;;;5.20;2.80;;;103.30;2227.20;;;;;;5069951;28;20035;-59
2023/11/29 05:28:43;;;;;;;4.45;2.60;;;103.30;2227.20;;;;;;5071711;28;20082;-57
2023/11/29 05:31:09;;;;;;;5.05;2.70;;;103.20;2227.20;;;;;;5071907;28;20081;-60
2023/11/29 05:33:35;;;;;;;18.02;12.27;;;103.30;2227.20;;;;;;5070300;28;20362;-60
2023/11/29 05:36:01;;;;;;;4.72;4.07;;;103.20;2227.20;;;;;;5070140;28;20074;-59
2023/11/29 05:38:26;;;;;;;12.20;10.98;;;103.20;2227.20;;;;;;5072363;28;20130;-58
2023/11/29 05:40:52;;;;;;;5.32;4.07;;;103.30;2227.20;;;;;;5072204;28;20459;-59
2023/11/29 05:43:18;;;;;;;5.45;3.17;;;103.20;2227.20;;;;;;5059220;28;20036;-58
2023/11/29 05:45:44;;;;;;;7.38;3.97;;;103.10;2227.20;;;;;;5072522;28;20352;-59
2023/11/29 05:48:10;;;;;;;31.15;17.40;;;103.10;2227.20;;;;;;5072097;28;20025;-59
2023/11/29 05:50:35;;;;;;;10.00;5.95;;;103.20;2227.20;;;;;;5072426;28;20013;-59
2023/11/29 05:53:02;;;;;;;8.32;4.35;;;103.30;2227.20;;;;;;5072219;28;20035;-58
2023/11/29 05:55:28;;;;;;;122.30;81.50;;;103.20;2227.20;;;;;;5072246;28;20017;-58
2023/11/29 05:57:54;;;;;;;8.38;6.03;;;103.10;2227.20;;;;;;5069636;28;20037;-58
2023/11/29 06:00:20;;;;;;;7.55;4.68;;;103.10;2227.20;;;;;;5072200;28;20024;-59
2023/11/29 06:02:47;;;;;;;10.70;8.20;;;103.00;2227.20;;;;;;5072030;28;20020;-59
2023/11/29 06:05:12;;;;;;;70.47;41.58;;;103.00;2227.20;;;;;;5072242;28;20033;-58
2023/11/29 06:07:38;;;;;;;10.55;6.82;;;103.00;2227.20;;;;;;5071775;28;20493;-58
2023/11/29 06:10:05;;;;;;;8.68;5.22;;;103.00;2227.20;;;;;;5071793;28;20029;-59
2023/11/29 06:12:33;;;;;;;10.48;9.10;;;103.10;2227.20;;;;;;5071926;28;20620;-59
2023/11/29 06:15:04;;;;;;;7.72;5.70;;;103.10;2227.20;;;;;;5072001;28;20052;-58
2023/11/29 06:17:31;;;;;;;10.32;5.43;;;103.10;2227.20;;;;;;5071354;28;20044;-59
2023/11/29 06:19:57;;;;;;;25.48;17.63;;;103.20;2227.20;;;;;;5072006;28;20026;-58
2023/11/29 06:22:23;;;;;;;15.20;12.85;;;103.20;2227.20;;;;;;5071622;28;20554;-60
2023/11/29 06:24:49;;;;;;;10.98;9.48;;;103.30;2227.20;;;;;;5071163;28;20040;-59
2023/11/29 06:27:16;;;;;;;16.23;14.68;;;128.00;2252.80;;;;;;5071082;28;20039;-59
2023/11/29 06:29:42;;;;;;;9.40;7.28;;;128.00;2252.80;;;;;;5065508;28;20454;-58
2023/11/29 06:32:07;;;;;;;8.05;6.82;;;128.20;2252.80;;;;;;5071275;28;20095;-59
2023/11/29 06:34:33;;;;;;;10.60;8.52;;;128.00;2252.80;;;;;;5069862;28;20033;-60
2023/11/29 06:36:59;;;;;;;38.75;25.40;;;128.10;2252.80;;;;;;5071401;28;20021;-59
2023/11/29 06:39:25;;;;;;;15.27;9.48;;;128.10;2252.80;;;;;;5070885;28;20111;-59
2023/11/29 06:41:50;;;;;;;8.45;5.30;;;128.10;2252.80;;;;;;5070459;28;20024;-59
2023/11/29 06:44:16;;;;;;;15.30;10.38;;;128.20;2252.80;;;;;;5071099;28;20024;-61
2023/11/29 06:46:42;;;;;;;166.90;137.13;;;128.10;2252.80;;;;;;5070940;28;20025;-61
2023/11/29 06:49:09;;;;;;;19.67;15.55;;;128.10;2252.80;;;;;;5070653;28;20024;-61
2023/11/29 06:51:36;;;;;;;21.95;19.42;;;128.10;2252.80;;;;;;5071165;28;20142;-61
2023/11/29 06:54:04;;;;;;;22.10;17.67;;;128.40;2252.80;;;;;;5071231;28;20482;-61
2023/11/29 06:56:30;;;;;;;18.77;14.30;;;128.40;2252.80;;;;;;5071133;28;20074;-58
2023/11/29 06:58:55;;;;;;;24.70;17.23;;;128.40;2252.80;;;;;;5071242;28;20036;-58
2023/11/29 07:01:21;;;;;;;14.32;11.13;;;128.50;2252.80;;;;;;5071197;28;20024;-59
2023/11/29 07:03:47;;;;;;;10.23;8.60;;;128.50;2252.80;;;;;;5070652;28;20043;-58
2023/11/29 07:06:21;;;;;;;11.55;9.10;;;128.50;2252.80;;;;;;5065894;28;20032;-57
2023/11/29 07:08:47;;;;;;;39.28;24.05;;;128.70;2252.80;;;;;;5058049;28;20031;-59
2023/11/29 07:11:13;;;;;;;16.60;9.43;;;128.50;2252.80;;;;;;5070649;28;20045;-59
2023/11/29 07:13:39;;;;;;;10.75;6.72;;;128.70;2252.80;;;;;;5070847;28;20497;-57
2023/11/29 07:16:05;;;;;;;17.88;12.13;;;128.60;2252.80;;;;;;5070649;28;20020;-58
2023/11/29 07:18:31;;;;;;;7.03;5.05;;;128.50;2252.80;;;;;;5071027;28;20051;-58
2023/11/29 07:20:57;;;;;;;15.40;13.38;;;128.70;2252.80;;;;;;5069648;28;20051;-58
2023/11/29 07:23:23;;;;;;;9.25;6.40;;;128.70;2252.80;;;;;;5070282;28;20086;-58
2023/11/29 07:25:49;;;;;;;17.85;10.93;;;128.80;2252.80;;;;;;5069699;28;20024;-59
2023/11/29 07:28:15;;;;;;;30.10;18.08;;;128.60;2252.80;;;;;;5070607;28;20021;-58
2023/11/29 07:30:42;;;;;;;7.18;4.35;;;128.70;2252.80;;;;;;5069814;28;20029;-58
2023/11/29 07:33:07;;;;;;;6.10;4.40;;;128.90;2252.80;;;;;;5069892;28;20032;-58
2023/11/29 07:35:33;;;;;;;9.85;5.85;;;128.90;2252.80;;;;;;5069854;28;20162;-57
2023/11/29 07:38:00;;;;;;;6.60;5.38;;;128.90;2252.80;;;;;;5069923;28;20067;-57
2023/11/29 07:40:25;;;;;;;18.08;10.10;;;153.60;2252.80;;;;;;5063649;28;20032;-59
2023/11/29 07:42:51;;;;;;;12.65;8.00;;;153.70;2252.80;;;;;;5069826;28;20092;-57
2023/11/29 07:45:17;;;;;;;7.07;5.07;;;153.80;2252.80;;;;;;5069001;28;20056;-59
2023/11/29 07:47:46;;;;;;;22.58;15.82;;;154.00;2252.80;;;;;;5068934;28;20056;-57
2023/11/29 07:50:14;;;;;;;10.00;9.05;;;153.90;2252.80;;;;;;5069619;28;20459;-58
2023/11/29 07:52:40;;;;;;;10.90;7.90;;;154.00;2252.80;;;;;;5069626;28;20021;-58
2023/11/29 07:55:07;;;;;;;18.33;13.63;;;154.00;2252.80;;;;;;5069230;28;20032;-58
2023/11/29 07:57:33;;;;;;;6.15;4.13;;;154.10;2252.80;;;;;;5069777;28;20475;-57
2023/11/29 08:00:02;;;;;;;6.95;6.22;;;154.00;2252.80;;;;;;5069047;28;20102;-57
2023/11/29 08:02:28;;;;;;;10.32;8.05;;;153.80;2252.80;;;;;;5068847;28;20024;-58
2023/11/29 08:04:53;;;;;;;5.82;3.90;;;153.90;2252.80;;;;;;5069448;28;20524;-58
2023/11/29 08:07:19;;;;;;;6.10;4.13;;;154.10;2252.80;;;;;;5068954;28;20024;-58
2023/11/29 08:09:47;;;;;;;7.88;5.43;;;154.30;2252.80;;;;;;5069408;28;20035;-57
2023/11/29 08:12:14;;;;;;;6.28;4.35;;;154.50;2252.80;;;;;;5069003;28;20555;-58
2023/11/29 08:14:40;;;;;;;5.00;3.78;;;154.30;2252.80;;;;;;5068677;28;20040;-61
2023/11/29 08:17:06;;;;;;;5.03;3.95;;;154.10;2252.80;;;;;;5058715;28;20032;-60
2023/11/29 08:19:32;;;;;;;21.27;17.52;;;154.20;2252.80;;;;;;5069044;28;20093;-66
2023/11/29 08:22:01;;;;;;;6.30;3.97;;;154.20;2252.80;;;;;;5067621;28;20444;-59
2023/11/29 08:24:27;;;;;;;6.38;4.03;;;154.20;2252.80;;;;;;5068278;28;20107;-59
2023/11/29 08:26:52;;;;;;;25.95;18.77;;;154.20;2252.80;;;;;;5057730;28;20120;-59
2023/11/29 08:29:18;;;;;;;9.38;7.05;;;154.30;2252.80;;;;;;5069086;28;20442;-58
2023/11/29 08:31:44;;;;;;;5.57;4.03;;;154.40;2252.80;;;;;;5068747;28;20130;-61
2023/11/29 08:34:10;;;;;;;10.18;7.78;;;154.10;2252.80;;;;;;5068147;28;20112;-58
2023/11/29 08:36:35;;;;;;;5.97;4.82;;;179.20;2252.80;;;;;;5069018;28;20096;-58
2023/11/29 08:39:01;;;;;;;7.93;5.18;;;179.20;2252.80;;;;;;5064077;28;20045;-59
2023/11/29 08:41:27;;;;;;;5.20;3.17;;;179.20;2252.80;;;;;;5069110;28;20032;-58
2023/11/29 08:43:53;;;;;;;5.70;4.28;;;179.20;2252.80;;;;;;5068800;28;20463;-59
2023/11/29 08:46:18;;;;;;;9.40;6.03;;;179.40;2252.80;;;;;;5067916;28;20032;-61
2023/11/29 08:48:45;;;;;;;9.93;7.70;;;179.40;2252.80;;;;;;5065308;28;20051;-58
2023/11/29 08:51:13;;;;;;;6.75;4.65;;;179.50;2252.80;;;;;;5065761;28;20467;-61
2023/11/29 08:53:39;;;;;;;8.38;5.13;;;179.60;2252.80;;;;;;5067689;28;20485;-59
2023/11/29 08:56:16;;;;;;;4.55;3.05;;;179.70;2252.80;;;;;;5068479;28;20025;-58
2023/11/29 08:58:42;;;;;;;7.30;5.53;;;179.30;2252.80;;;;;;5068104;28;20036;-59
2023/11/29 09:01:08;;;;;;;8.43;5.97;;;179.30;2252.80;;;;;;5068624;28;20093;-58
2023/11/29 09:03:34;;;;;;;6.57;4.03;;;154.50;2252.80;;;;;;5068370;28;20025;-58
2023/11/29 09:06:00;;;;;;;6.47;4.55;;;154.50;2252.80;;;;;;5068144;28;20459;-58
2023/11/29 09:08:26;;;;;;;8.95;5.38;;;179.30;2252.80;;;;;;5068158;28;20087;-59
2023/11/29 09:10:51;;;;;;;4.70;3.53;;;179.50;2252.80;;;;;;5068587;28;20029;-68
2023/11/29 09:13:17;;;;;;;7.68;5.80;;;179.60;2252.80;;;;;;5068370;28;20107;-58
2023/11/29 09:15:43;;;;;;;6.70;4.70;;;204.80;2252.80;;;;;;5068560;28;20507;-58
2023/11/29 09:18:09;;;;;;;60.13;51.30;;;204.90;2252.80;;;;;;5071606;28;20039;-60
2023/11/29 09:20:34;;;;;;;6.60;4.63;;;204.90;2252.80;;;;;;5073691;28;20463;-58
2023/11/29 09:23:00;;;;;;;16.83;12.18;;;205.00;2252.80;;;;;;5069742;28;20032;-58
2023/11/29 09:25:26;;;;;;;17.17;12.70;;;205.20;2252.80;;;;;;5061613;28;20031;-60
2023/11/29 09:27:52;;;;;;;8.18;5.93;;;205.10;2252.80;;;;;;5073079;28;20027;-60
2023/11/29 09:30:18;;;;;;;70.32;49.88;;;205.10;2252.80;;;;;;5071372;28;20224;-58
2023/11/29 09:32:44;;;;;;;15.35;13.75;;;205.10;2252.80;;;;;;5069659;28;20021;-59
2023/11/29 09:35:09;;;;;;;21.25;14.35;;;205.00;2252.80;;;;;;5068176;28;20119;-58
2023/11/29 09:37:35;;;;;;;13.13;7.28;;;180.10;2252.80;;;;;;5067677;28;20032;-62
2023/11/29 09:40:03;;;;;;;8.57;6.40;;;204.80;2252.80;;;;;;5068015;28;20017;-63
2023/11/29 09:42:30;;;;;;;13.73;8.98;;;180.00;2252.80;;;;;;5068118;28;20056;-59
2023/11/29 09:44:58;;;;;;;17.75;10.40;;;179.80;2252.80;;;;;;5068088;28;20433;-59
2023/11/29 09:47:26;;;;;;;26.40;18.08;;;179.80;2252.80;;;;;;5068503;28;20047;-59
2023/11/29 09:49:53;;;;;;;18.55;12.63;;;179.90;2252.80;;;;;;5067722;28;20027;-58
2023/11/29 09:52:18;;;;;;;14.63;9.77;;;180.00;2252.80;;;;;;5067726;28;20043;-58
2023/11/29 09:54:44;;;;;;;17.83;11.80;;;180.00;2252.80;;;;;;5067780;28;20024;-58
2023/11/29 09:57:12;;;;;;;15.15;11.25;;;180.10;2252.80;;;;;;5068017;28;20111;-58
2023/11/29 09:59:38;;;;;;;17.48;12.40;;;204.80;2252.80;;;;;;5057210;28;20398;-59
2023/11/29 10:02:06;;;;;;;24.83;18.55;;;180.10;2252.80;;;;;;5054749;28;20017;-61
2023/11/29 10:04:39;;;;;;;9.60;6.65;;;204.80;2252.80;;;;;;5067586;28;20024;-59
2023/11/29 10:07:05;;;;;;;7.47;5.57;;;180.10;2252.80;;;;;;5067733;28;20021;-59
2023/11/29 10:09:37;;;;;;;14.18;11.13;;;204.80;2252.80;;;;;;5065890;28;20086;-59
2023/11/29 10:12:07;;;;;;;24.33;17.88;;;205.00;2252.80;;;;;;5070868;28;20135;-64
2023/11/29 10:14:32;;;;;;;13.48;8.55;;;204.90;2252.80;;;;;;5071001;28;20028;-61
2023/11/29 10:16:58;;;;;;;9.27;6.22;;;204.90;2252.80;;;;;;5070468;28;20028;-61
2023/11/29 10:19:25;;;;;;;13.50;8.63;;;180.10;2252.80;;;;;;5071697;28;20498;-58
2023/11/29 10:21:54;;;;;;;6.22;3.90;;;180.00;2252.80;;;;;;5071564;28;20020;-58
2023/11/29 10:24:24;;;;;;;7.57;4.72;;;180.10;2252.80;;;;;;5070655;28;20036;-58
2023/11/29 10:26:50;;;;;;;30.85;21.77;;;179.90;2252.80;;;;;;5070171;28;20050;-64
2023/11/29 10:29:16;;;;;;;13.90;7.15;;;180.00;2252.80;;;;;;5071497;28;20028;-59
2023/11/29 10:31:43;;;;;;;11.52;8.13;;;204.90;2252.80;;;;;;5070939;28;20035;-58
2023/11/29 10:34:14;;;;;;;9.70;6.00;;;205.10;2252.80;;;;;;5069486;28;20017;-59
2023/11/29 10:36:39;;;;;;;6.20;4.75;;;204.80;2252.80;;;;;;5066542;28;20028;-59
2023/11/29 10:39:11;;;;;;;7.03;4.85;;;180.00;2252.80;;;;;;5070941;28;20036;-61
2023/11/29 10:41:50;;;;;;;7.30;5.43;;;179.90;2252.80;;;;;;5070769;28;20107;-59
2023/11/29 10:44:31;;;;;;;16.00;9.02;;;180.10;2252.80;;;;;;5070572;28;20032;-59
2023/11/29 10:47:16;;;;;;;14.00;8.82;;;204.90;2252.80;;;;;;5070906;28;20013;-59
2023/11/29 10:49:48;;;;;;;12.30;7.85;;;204.90;2252.80;;;;;;5070526;28;20190;-59
2023/11/29 10:52:17;;;;;;;12.77;7.93;;;204.80;2252.80;;;;;;5070906;28;20017;-59
2023/11/29 10:54:47;;;;;;;24.52;15.98;;;204.80;2252.80;;;;;;5070661;28;20531;-59
2023/11/29 10:57:26;;;;;;;11.70;8.65;;;180.10;2252.80;;;;;;5070994;28;20024;-59
2023/11/29 11:00:04;;;;;;;24.38;16.00;;;204.80;2252.80;;;;;;5070382;28;20522;-58
2023/11/29 11:02:30;;;;;;;14.43;10.38;;;204.90;2252.80;;;;;;5070478;28;20021;-56
2023/11/29 11:05:08;;;;;;;22.65;13.65;;;204.90;2252.80;;;;;;5070650;28;20374;-59
2023/11/29 11:07:41;;;;;;;17.67;12.00;;;204.80;2252.80;;;;;;5064465;28;20040;-58
2023/11/29 11:10:15;;;;;;;16.45;11.27;;;180.10;2252.80;;;;;;5066091;28;20024;-59
2023/11/29 11:12:42;;;;;;;14.68;9.75;;;180.00;2252.80;;;;;;5070263;28;20048;-59
2023/11/29 11:15:25;;;;;;;10.63;7.85;;;180.10;2252.80;;;;;;5070234;28;20099;-59
2023/11/29 11:18:07;;;;;;;12.13;8.18;;;179.90;2252.80;;;;;;5070042;28;20125;-58
2023/11/29 11:20:50;;;;;;;10.50;6.25;;;179.70;2252.80;;;;;;5069629;28;20041;-59
2023/11/29 11:23:25;;;;;;;13.20;8.52;;;179.70;2252.80;;;;;;5070106;28;20360;-59
2023/11/29 11:25:56;;;;;;;10.23;6.90;;;179.90;2252.80;;;;;;5070069;28;20100;-58
2023/11/29 11:28:39;;;;;;;10.93;9.65;;;180.00;2252.80;;;;;;5069978;28;20029;-58
2023/11/29 11:31:09;;;;;;;10.95;7.53;;;180.10;2252.80;;;;;;5070563;28;20016;-60
2023/11/29 11:33:53;;;;;;;11.85;9.45;;;204.90;2252.80;;;;;;5070311;28;20710;-59
2023/11/29 11:36:23;;;;;;;18.77;13.40;;;205.00;2252.80;;;;;;5070642;28;20032;-59
2023/11/29 11:38:50;;;;;;;13.13;8.13;;;205.20;2252.80;;;;;;5069599;28;20418;-59
2023/11/29 11:41:16;;;;;;;9.00;6.22;;;204.90;2252.80;;;;;;5069611;28;20079;-59
2023/11/29 11:43:42;;;;;;;9.25;6.22;;;180.10;2252.80;;;;;;5069907;28;20059;-59
2023/11/29 11:46:08;;;;;;;14.60;8.85;;;179.90;2252.80;;;;;;5062206;28;20120;-62
2023/11/29 11:48:36;;;;;;;14.98;8.75;;;179.90;2252.80;;;;;;5056256;28;20471;-65
2023/11/29 11:51:02;;;;;;;10.35;6.95;;;179.80;2252.80;;;;;;5069456;28;20020;-66
2023/11/29 11:53:27;;;;;;;8.32;5.70;;;180.00;2252.80;;;;;;5069277;28;20035;-59
2023/11/29 11:55:53;;;;;;;10.68;6.90;;;180.00;2252.80;;;;;;5070232;28;20028;-59
2023/11/29 11:58:19;;;;;;;13.30;8.60;;;204.80;2252.80;;;;;;5069387;28;20044;-62
2023/11/29 12:00:50;;;;;;;12.52;6.57;;;180.10;2252.80;;;;;;5069626;28;20028;-58
2023/11/29 12:03:16;;;;;;;13.13;7.63;;;204.90;2252.80;;;;;;5069034;28;20048;-58
2023/11/29 12:05:42;;;;;;;15.75;8.45;;;204.90;2252.80;;;;;;5069879;28;20023;-58
2023/11/29 12:08:09;;;;;;;15.27;9.25;;;204.80;2252.80;;;;;;5068764;28;20387;-59